createdAt,value
2019-05-26T00:01:28.720Z,9.13
2019-05-26T00:03:57.089Z,11.57
2019-05-26T00:06:24.570Z,10.50
2019-05-26T00:08:53.026Z,11.27
2019-05-26T00:11:20.693Z,11.93
2019-05-26T00:13:48.952Z,12.53
2019-05-26T00:16:16.451Z,9.93
2019-05-26T00:18:44.714Z,12.80
2019-05-26T00:21:13.213Z,14.45
2019-05-26T00:23:40.876Z,13.00
2019-05-26T00:26:08.554Z,16.27
2019-05-26T00:28:36.039Z,13.03
2019-05-26T00:31:04.521Z,16.17
2019-05-26T00:33:32.155Z,19.60
2019-05-26T00:35:59.668Z,12.27
2019-05-26T00:38:27.283Z,13.40
2019-05-26T00:40:54.959Z,17.80
2019-05-26T00:43:22.456Z,16.53
2019-05-26T00:45:50.075Z,15.23
2019-05-26T00:48:17.575Z,14.27
2019-05-26T00:50:45.930Z,18.87
2019-05-26T00:53:14.290Z,15.93
2019-05-26T00:55:41.892Z,20.70
2019-05-26T00:58:10.238Z,16.53
2019-05-26T01:00:40.764Z,21.50
2019-05-26T01:03:08.256Z,18.60
2019-05-26T01:05:35.867Z,20.83
2019-05-26T01:08:06.627Z,21.67
2019-05-26T01:10:32.604Z,13.90
2019-05-26T01:13:00.967Z,20.63
2019-05-26T01:15:28.452Z,21.77
2019-05-26T01:17:55.959Z,21.00
2019-05-26T01:20:23.498Z,19.70
2019-05-26T01:22:53.728Z,24.30
2019-05-26T01:25:19.516Z,20.77
2019-05-26T01:27:47.008Z,21.70
2019-05-26T01:30:14.623Z,26.27
2019-05-26T01:32:42.870Z,24.13
2019-05-26T01:35:10.392Z,25.73
2019-05-26T01:37:38.660Z,25.20
2019-05-26T01:42:42.172Z,26.53
2019-05-26T01:45:10.568Z,26.63
2019-05-26T01:47:39.056Z,27.17
2019-05-26T01:50:06.701Z,20.57
2019-05-26T01:52:34.372Z,26.40
2019-05-26T01:55:01.964Z,26.70
2019-05-26T01:57:30.421Z,25.57
2019-05-26T01:59:57.990Z,17.80
2019-05-26T02:02:25.600Z,20.63
2019-05-26T02:04:53.333Z,27.93
2019-05-26T02:07:20.995Z,33.30
2019-05-26T02:09:48.496Z,22.53
2019-05-26T02:12:16.116Z,22.83
2019-05-26T02:14:43.694Z,25.50
2019-05-26T02:17:11.960Z,24.90
2019-05-26T02:19:40.278Z,26.63
2019-05-26T02:22:07.909Z,28.77
2019-05-26T02:24:36.550Z,27.50
2019-05-26T02:27:04.137Z,25.73
2019-05-26T02:29:33.061Z,21.33
2019-05-26T02:32:00.622Z,26.20
2019-05-26T02:34:28.286Z,22.03
2019-05-26T02:36:56.559Z,24.00
2019-05-26T02:39:24.237Z,27.00
2019-05-26T02:41:51.801Z,21.23
2019-05-26T02:44:19.279Z,26.23
2019-05-26T02:46:47.552Z,24.27
2019-05-26T02:49:19.135Z,25.03
2019-05-26T02:51:46.650Z,18.27
2019-05-26T02:54:14.170Z,23.17
2019-05-26T02:56:43.151Z,24.67
2019-05-26T02:59:12.131Z,21.37
2019-05-26T03:02:01.408Z,24.93
2019-05-26T03:04:08.807Z,20.30
2019-05-26T03:06:38.202Z,23.90
2019-05-26T03:09:21.709Z,28.00
2019-05-26T03:11:34.142Z,25.63
2019-05-26T03:14:02.410Z,18.50
2019-05-26T03:16:29.899Z,25.67
2019-05-26T03:18:58.581Z,23.03
2019-05-26T03:21:26.406Z,23.50
2019-05-26T03:23:54.026Z,24.40
2019-05-26T03:26:22.413Z,26.67
2019-05-26T03:28:50.669Z,23.23
2019-05-26T03:31:18.153Z,16.87
2019-05-26T03:33:46.433Z,23.97
2019-05-26T03:36:14.798Z,23.40
2019-05-26T03:38:42.353Z,22.90
2019-05-26T03:41:09.928Z,23.53
2019-05-26T03:43:37.416Z,25.60
2019-05-26T03:46:09.509Z,20.93
2019-05-26T03:48:37.249Z,21.23
2019-05-26T03:51:05.520Z,19.57
2019-05-26T03:53:33.889Z,17.43
2019-05-26T03:56:01.388Z,19.17
2019-05-26T03:58:28.920Z,20.87
2019-05-26T04:00:56.413Z,17.83
2019-05-26T04:03:24.756Z,16.50
2019-05-26T04:05:52.253Z,20.33
2019-05-26T04:08:20.547Z,17.63
2019-05-26T04:10:48.151Z,20.10
2019-05-26T04:13:15.975Z,24.73
2019-05-26T04:15:43.524Z,24.47
2019-05-26T04:18:11.913Z,24.10
2019-05-26T04:20:40.188Z,16.27
2019-05-26T04:23:07.836Z,21.60
2019-05-26T04:25:35.503Z,20.37
2019-05-26T04:28:03.931Z,15.73
2019-05-26T04:30:31.458Z,16.03
2019-05-26T04:32:59.108Z,18.23
2019-05-26T04:35:26.683Z,19.80
2019-05-26T04:37:54.936Z,19.13
2019-05-26T04:40:26.948Z,20.73
2019-05-26T04:42:50.159Z,18.77
2019-05-26T04:45:17.879Z,15.20
2019-05-26T04:47:46.252Z,16.87
2019-05-26T04:50:14.522Z,18.83
2019-05-26T04:52:42.110Z,16.30
2019-05-26T04:55:10.375Z,19.73
2019-05-26T04:57:37.874Z,19.10
2019-05-26T05:00:06.874Z,13.23
2019-05-26T05:02:34.486Z,19.63
2019-05-26T05:05:02.174Z,16.03
2019-05-26T05:07:30.493Z,14.13
2019-05-26T05:09:57.992Z,16.07
2019-05-26T05:12:25.483Z,14.87
2019-05-26T05:14:53.855Z,16.63
2019-05-26T05:17:21.414Z,14.07
2019-05-26T05:19:48.919Z,18.03
2019-05-26T05:22:16.429Z,15.27
2019-05-26T05:24:44.105Z,13.23
2019-05-26T05:27:11.694Z,16.07
2019-05-26T05:29:39.989Z,12.53
2019-05-26T05:32:07.486Z,14.90
2019-05-26T05:34:35.072Z,13.43
2019-05-26T05:37:04.486Z,14.43
2019-05-26T05:39:32.144Z,14.50
2019-05-26T05:41:59.653Z,16.93
2019-05-26T05:44:27.229Z,12.00
2019-05-26T05:46:54.836Z,11.17
2019-05-26T05:49:22.412Z,11.80
2019-05-26T05:51:50.093Z,11.27
2019-05-26T05:54:17.801Z,10.27
2019-05-26T05:56:45.306Z,12.87
2019-05-26T05:59:13.816Z,13.20
2019-05-26T06:01:41.584Z,13.27
2019-05-26T06:04:09.838Z,10.70
2019-05-26T06:06:39.060Z,13.47
2019-05-26T06:09:07.322Z,11.77
2019-05-26T06:11:34.982Z,12.17
2019-05-26T06:14:03.743Z,13.47
2019-05-26T06:16:31.233Z,13.70
2019-05-26T06:18:58.709Z,12.33
2019-05-26T06:21:26.269Z,14.53
2019-05-26T06:23:55.105Z,14.57
2019-05-26T06:26:22.843Z,12.50
2019-05-26T06:28:52.466Z,14.63
2019-05-26T06:31:17.983Z,10.70
2019-05-26T06:33:46.246Z,15.43
2019-05-26T06:36:14.002Z,12.30
2019-05-26T06:38:41.584Z,9.20
2019-05-26T06:41:11.878Z,11.03
2019-05-26T06:43:39.478Z,12.03
2019-05-26T06:46:07.342Z,10.03
2019-05-26T06:48:34.870Z,13.57
2019-05-26T06:51:02.652Z,12.37
2019-05-26T06:53:30.170Z,10.70
2019-05-26T06:55:58.518Z,14.03
2019-05-26T06:58:26.198Z,12.43
2019-05-26T07:00:53.766Z,9.20
2019-05-26T07:03:22.053Z,10.77
2019-05-26T07:05:49.701Z,11.67
2019-05-26T07:08:17.383Z,12.60
2019-05-26T07:10:46.051Z,10.40
2019-05-26T07:13:13.611Z,9.75
2019-05-26T07:15:41.094Z,14.90
2019-05-26T07:18:09.364Z,11.07
2019-05-26T07:20:37.131Z,9.87
2019-05-26T07:23:07.734Z,11.60
2019-05-26T07:25:34.918Z,10.03
2019-05-26T07:28:02.515Z,11.83
2019-05-26T07:30:30.803Z,10.47
2019-05-26T07:32:58.427Z,9.47
2019-05-26T07:35:25.990Z,10.77
2019-05-26T07:37:53.571Z,12.13
2019-05-26T07:40:21.112Z,9.43
2019-05-26T07:42:48.600Z,10.33
2019-05-26T07:45:17.172Z,11.30
2019-05-26T07:47:44.745Z,9.17
2019-05-26T07:50:12.224Z,11.30
2019-05-26T07:52:40.787Z,12.80
2019-05-26T07:55:08.452Z,8.97
2019-05-26T07:57:36.135Z,16.63
2019-05-26T08:00:04.609Z,10.80
2019-05-26T08:02:32.176Z,9.80
2019-05-26T08:05:04.698Z,13.27
2019-05-26T08:07:32.324Z,9.70
2019-05-26T08:09:59.881Z,8.07
2019-05-26T08:12:30.543Z,14.27
2019-05-26T08:14:55.426Z,14.87
2019-05-26T08:17:23.700Z,15.93
2019-05-26T08:19:52.796Z,12.63
2019-05-26T08:22:20.287Z,11.33
2019-05-26T08:24:48.530Z,11.67
2019-05-26T08:27:16.046Z,10.50
2019-05-26T08:29:43.528Z,15.10
2019-05-26T08:32:11.123Z,9.13
2019-05-26T08:34:38.606Z,9.90
2019-05-26T08:37:06.263Z,10.43
2019-05-26T08:39:33.861Z,11.07
2019-05-26T08:42:02.237Z,8.47
2019-05-26T08:44:30.329Z,9.50
2019-05-26T08:46:58.576Z,6.77
2019-05-26T08:49:26.119Z,11.93
2019-05-26T08:51:53.702Z,9.57
2019-05-26T08:54:21.270Z,8.87
2019-05-26T08:56:48.768Z,10.07
2019-05-26T08:59:16.497Z,9.37
2019-05-26T09:01:44.166Z,11.20
2019-05-26T09:04:13.169Z,8.43
2019-05-26T09:06:41.409Z,9.27
2019-05-26T09:09:08.894Z,7.57
2019-05-26T09:11:37.213Z,9.07
2019-05-26T09:14:04.701Z,7.90
2019-05-26T09:16:32.506Z,7.07
2019-05-26T09:19:00.176Z,8.33
2019-05-26T09:21:27.698Z,7.87
2019-05-26T09:23:55.224Z,7.23
2019-05-26T09:26:23.698Z,6.07
2019-05-26T09:28:53.235Z,5.40
2019-05-26T09:31:21.582Z,9.43
2019-05-26T09:33:49.263Z,8.37
2019-05-26T09:36:17.545Z,7.23
2019-05-26T09:38:45.914Z,6.43
2019-05-26T09:41:13.473Z,8.10
2019-05-26T09:43:40.982Z,5.47
2019-05-26T09:46:08.532Z,6.03
2019-05-26T09:48:36.882Z,6.33
2019-05-26T09:51:04.453Z,6.47
2019-05-26T09:53:31.968Z,6.60
2019-05-26T09:55:59.797Z,7.73
2019-05-26T09:58:28.071Z,6.07
2019-05-26T10:00:55.642Z,7.63
2019-05-26T10:03:23.193Z,6.27
2019-05-26T10:05:50.846Z,7.50
2019-05-26T10:08:18.526Z,7.67
2019-05-26T10:10:46.904Z,7.63
2019-05-26T10:13:14.400Z,5.50
2019-05-26T10:15:42.690Z,6.97
2019-05-26T10:18:11.044Z,12.40
2019-05-26T10:20:38.602Z,8.33
2019-05-26T10:23:06.303Z,8.77
2019-05-26T10:25:33.957Z,7.70
2019-05-26T10:28:03.757Z,7.27
2019-05-26T10:30:31.257Z,8.63
2019-05-26T10:32:58.819Z,5.33
2019-05-26T10:35:26.336Z,8.97
2019-05-26T10:37:54.010Z,7.73
2019-05-26T10:40:21.560Z,7.83
2019-05-26T10:42:49.517Z,7.27
2019-05-26T10:45:17.004Z,7.27
2019-05-26T10:47:44.591Z,7.53
2019-05-26T10:50:12.848Z,9.33
2019-05-26T10:52:42.748Z,10.30
2019-05-26T10:55:10.295Z,5.53
2019-05-26T10:57:37.777Z,6.70
2019-05-26T11:00:05.358Z,8.63
2019-05-26T11:02:32.879Z,5.70
2019-05-26T11:05:00.507Z,7.67
2019-05-26T11:07:28.841Z,8.60
2019-05-26T11:09:56.346Z,5.27
2019-05-26T11:12:24.586Z,4.17
2019-05-26T11:14:52.062Z,3.63
2019-05-26T11:17:19.853Z,5.10
2019-05-26T11:19:47.515Z,4.50
2019-05-26T11:22:15.765Z,7.10
2019-05-26T11:24:43.253Z,5.80
2019-05-26T11:27:13.031Z,5.17
2019-05-26T11:29:38.508Z,7.43
2019-05-26T11:32:07.650Z,4.50
2019-05-26T11:34:35.118Z,5.97
2019-05-26T11:37:02.595Z,6.00
2019-05-26T11:39:30.110Z,8.53
2019-05-26T11:42:11.973Z,7.77
2019-05-26T11:44:25.319Z,8.17
2019-05-26T11:46:53.681Z,7.53
2019-05-26T11:49:21.215Z,5.10
2019-05-26T11:51:48.930Z,5.90
2019-05-26T11:54:17.195Z,11.67
2019-05-26T11:56:45.172Z,7.07
2019-05-26T11:59:13.045Z,5.60
2019-05-26T12:01:40.709Z,4.20
2019-05-26T12:04:08.370Z,7.00
2019-05-26T12:06:36.494Z,5.60
2019-05-26T12:09:05.327Z,6.00
2019-05-26T12:11:32.917Z,3.73
2019-05-26T12:14:01.169Z,4.50
2019-05-26T12:16:29.049Z,5.73
2019-05-26T12:18:57.036Z,4.40
2019-05-26T12:21:24.531Z,3.73
2019-05-26T12:23:55.073Z,3.70
2019-05-26T12:26:21.477Z,1.87
2019-05-26T12:28:50.167Z,2.33
2019-05-26T12:31:17.742Z,3.07
2019-05-26T12:33:46.107Z,4.00
2019-05-26T12:36:13.704Z,4.80
2019-05-26T12:38:47.774Z,5.67
2019-05-26T12:41:15.258Z,4.53
2019-05-26T12:43:43.658Z,4.67
2019-05-26T12:46:12.144Z,3.87
2019-05-26T12:48:40.494Z,4.37
2019-05-26T12:51:08.343Z,4.37
2019-05-26T12:53:35.832Z,3.20
2019-05-26T12:56:04.403Z,3.10
2019-05-26T12:58:31.993Z,4.67
2019-05-26T13:00:59.664Z,7.40
2019-05-26T13:03:27.787Z,4.73
2019-05-26T13:05:55.391Z,5.97
2019-05-26T13:08:22.956Z,4.00
2019-05-26T13:10:50.517Z,4.83
2019-05-26T13:13:18.109Z,4.33
2019-05-26T13:15:45.756Z,5.23
2019-05-26T13:18:13.304Z,5.40
2019-05-26T13:20:40.884Z,4.23
2019-05-26T13:23:08.387Z,3.87
2019-05-26T13:25:37.226Z,2.27
2019-05-26T13:28:05.873Z,4.83
2019-05-26T13:30:33.394Z,3.27
2019-05-26T13:33:00.968Z,2.20
2019-05-26T13:35:29.656Z,2.80
2019-05-26T13:37:57.318Z,7.60
2019-05-26T13:40:24.882Z,3.67
2019-05-26T13:42:52.752Z,5.13
2019-05-26T13:45:22.887Z,3.57
2019-05-26T13:47:48.919Z,5.53
2019-05-26T13:50:16.480Z,3.00
2019-05-26T13:52:44.141Z,6.17
2019-05-26T13:55:12.409Z,3.03
2019-05-26T13:57:39.974Z,1.80
2019-05-26T14:00:07.614Z,7.50
2019-05-26T14:02:35.315Z,2.90
2019-05-26T14:05:05.298Z,4.50
2019-05-26T14:07:32.908Z,5.07
2019-05-26T14:10:02.483Z,3.97
2019-05-26T14:12:30.094Z,3.43
2019-05-26T14:14:58.459Z,2.60
2019-05-26T14:17:26.129Z,3.43
2019-05-26T14:19:54.144Z,6.17
2019-05-26T14:22:22.698Z,5.60
2019-05-26T14:24:53.989Z,4.50
2019-05-26T14:27:17.815Z,4.43
2019-05-26T14:29:45.385Z,2.70
2019-05-26T14:32:12.937Z,3.77
2019-05-26T14:34:40.615Z,5.93
2019-05-26T14:37:08.110Z,3.70
2019-05-26T14:39:36.557Z,5.87
2019-05-26T14:42:04.053Z,7.80
2019-05-26T14:44:31.541Z,4.30
2019-05-26T14:46:59.358Z,4.17
2019-05-26T14:49:26.862Z,4.83
2019-05-26T14:51:55.416Z,3.80
2019-05-26T14:54:22.916Z,5.80
2019-05-26T14:56:50.513Z,3.47
2019-05-26T14:59:18.124Z,5.33
2019-05-26T15:01:46.483Z,5.13
2019-05-26T15:04:13.961Z,6.50
2019-05-26T15:06:42.216Z,7.50
2019-05-26T15:09:24.269Z,4.97
2019-05-26T15:11:38.895Z,5.70
2019-05-26T15:14:06.557Z,8.57
2019-05-26T15:16:35.767Z,5.23
2019-05-26T15:19:04.710Z,3.10
2019-05-26T15:21:32.281Z,7.40
2019-05-26T15:24:00.912Z,2.60
2019-05-26T15:26:29.960Z,5.20
2019-05-26T15:28:58.593Z,3.77
2019-05-26T15:31:26.089Z,3.27
2019-05-26T15:33:54.333Z,7.00
2019-05-26T15:36:22.354Z,5.93
2019-05-26T15:38:50.078Z,6.57
2019-05-26T15:41:17.652Z,6.70
2019-05-26T15:43:45.140Z,4.60
2019-05-26T15:46:24.681Z,5.23
2019-05-26T15:48:42.605Z,3.77
2019-05-26T15:51:10.162Z,3.63
2019-05-26T15:53:37.644Z,3.23
2019-05-26T15:56:06.457Z,4.50
2019-05-26T15:58:33.939Z,5.33
2019-05-26T16:01:01.545Z,5.80
2019-05-26T16:03:29.151Z,6.57
2019-05-26T16:05:56.655Z,7.60
2019-05-26T16:08:24.445Z,6.90
2019-05-26T16:10:53.531Z,3.77
2019-05-26T16:13:21.226Z,5.17
2019-05-26T16:15:49.697Z,4.67
2019-05-26T16:18:17.459Z,7.77
2019-05-26T16:20:45.133Z,7.03
2019-05-26T16:23:14.228Z,21.77
2019-05-26T16:25:41.792Z,20.30
2019-05-26T16:28:09.360Z,8.87
2019-05-26T16:30:37.025Z,11.77
2019-05-26T16:33:04.694Z,8.07
2019-05-26T16:35:32.210Z,8.27
2019-05-26T16:37:59.718Z,11.10
2019-05-26T16:40:28.726Z,4.83
2019-05-26T16:42:56.280Z,8.67
2019-05-26T16:45:23.803Z,5.97
2019-05-26T16:47:51.426Z,5.23
2019-05-26T16:50:21.434Z,6.37
2019-05-26T16:52:48.992Z,7.30
2019-05-26T16:55:16.499Z,5.95
2019-05-26T16:57:44.034Z,4.70
2019-05-26T17:00:11.806Z,4.20
2019-05-26T17:02:40.159Z,3.40
2019-05-26T17:05:07.660Z,4.10
2019-05-26T17:07:36.007Z,3.33
2019-05-26T17:10:04.616Z,4.10
2019-05-26T17:12:32.104Z,4.83
2019-05-26T17:15:00.454Z,6.30
2019-05-26T17:17:27.924Z,5.37
2019-05-26T17:19:55.583Z,7.10
2019-05-26T17:22:23.197Z,3.60
2019-05-26T17:24:50.816Z,7.47
2019-05-26T17:27:19.524Z,6.93
2019-05-26T17:29:48.299Z,7.60
2019-05-26T17:32:15.810Z,3.17
2019-05-26T17:34:43.357Z,5.93
2019-05-26T17:37:10.887Z,4.17
2019-05-26T17:39:39.717Z,5.53
2019-05-26T17:42:07.339Z,5.20
2019-05-26T17:44:34.835Z,6.50
2019-05-26T17:47:04.023Z,3.60
2019-05-26T17:49:31.681Z,6.30
2019-05-26T17:51:59.268Z,4.70
2019-05-26T17:54:27.520Z,4.13
2019-05-26T17:56:55.221Z,3.50
2019-05-26T17:59:23.766Z,4.43
2019-05-26T18:01:51.358Z,4.13
2019-05-26T18:04:19.641Z,7.57
2019-05-26T18:06:47.893Z,6.23
2019-05-26T18:09:15.565Z,5.87
2019-05-26T18:11:43.240Z,10.47
2019-05-26T18:14:10.724Z,6.57
2019-05-26T18:16:39.012Z,5.23
2019-05-26T18:19:06.547Z,6.30
2019-05-26T18:21:34.061Z,4.60
2019-05-26T18:24:01.551Z,4.93
2019-05-26T18:26:29.103Z,5.63
2019-05-26T18:28:56.689Z,5.23
2019-05-26T18:31:28.969Z,3.53
2019-05-26T18:33:53.711Z,6.30
2019-05-26T18:36:21.479Z,7.93
2019-05-26T18:38:49.082Z,8.07
2019-05-26T18:41:16.675Z,7.83
2019-05-26T18:43:44.294Z,8.53
2019-05-26T18:46:11.901Z,6.60
2019-05-26T18:48:39.402Z,5.93
2019-05-26T18:51:06.925Z,6.53
2019-05-26T18:53:34.413Z,8.63
2019-05-26T18:56:02.662Z,5.63
2019-05-26T18:58:30.143Z,7.53
2019-05-26T19:00:58.497Z,7.63
2019-05-26T19:03:25.986Z,7.57
2019-05-26T19:05:53.656Z,8.67
2019-05-26T19:08:22.227Z,6.83
2019-05-26T19:10:49.898Z,9.83
2019-05-26T19:13:17.468Z,5.00
2019-05-26T19:15:45.132Z,6.27
2019-05-26T19:18:19.739Z,7.43
2019-05-26T19:20:41.176Z,4.60
2019-05-26T19:23:08.673Z,7.43
2019-05-26T19:25:37.221Z,7.20
2019-05-26T19:28:04.895Z,5.07
2019-05-26T19:30:32.380Z,6.87
2019-05-26T19:33:00.654Z,5.13
2019-05-26T19:35:28.891Z,5.90
2019-05-26T19:37:56.401Z,8.37
2019-05-26T19:40:24.732Z,6.80
2019-05-26T19:42:52.333Z,5.60
2019-05-26T19:45:19.890Z,4.70
2019-05-26T19:47:48.152Z,5.40
2019-05-26T19:50:15.735Z,7.50
2019-05-26T19:52:43.299Z,4.97
2019-05-26T19:55:10.830Z,4.30
2019-05-26T19:57:38.739Z,7.17
2019-05-26T20:00:08.843Z,3.47
2019-05-26T20:02:36.351Z,4.90
2019-05-26T20:05:05.832Z,4.27
2019-05-26T20:07:34.106Z,3.90
2019-05-26T20:10:02.423Z,3.53
2019-05-26T20:12:30.842Z,5.40
2019-05-26T20:14:58.326Z,2.87
2019-05-26T20:17:25.892Z,4.80
2019-05-26T20:19:53.553Z,5.60
2019-05-26T20:22:24.383Z,6.37
2019-05-26T20:24:49.472Z,6.90
2019-05-26T20:27:16.951Z,4.97
2019-05-26T20:29:44.540Z,4.73
2019-05-26T20:32:12.055Z,4.03
2019-05-26T20:34:39.669Z,3.10
2019-05-26T20:37:07.225Z,3.33
2019-05-26T20:39:34.743Z,5.50
2019-05-26T20:42:02.467Z,4.50
2019-05-26T20:44:30.043Z,3.60
2019-05-26T20:46:58.356Z,5.37
2019-05-26T20:49:25.983Z,3.33
2019-05-26T20:51:53.641Z,4.53
2019-05-26T20:54:21.926Z,4.83
2019-05-26T20:56:49.490Z,3.47
2019-05-26T20:59:17.051Z,3.60
2019-05-26T21:01:44.536Z,5.37
2019-05-26T21:04:13.772Z,3.00
2019-05-26T21:06:41.524Z,3.97
2019-05-26T21:09:11.298Z,4.93
2019-05-26T21:11:37.776Z,4.73
2019-05-26T21:14:06.180Z,4.57
2019-05-26T21:16:33.700Z,2.30
2019-05-26T21:19:01.959Z,4.40
2019-05-26T21:21:29.563Z,3.13
2019-05-26T21:23:57.812Z,2.67
2019-05-26T21:26:25.406Z,2.57
2019-05-26T21:28:53.872Z,3.47
2019-05-26T21:31:21.441Z,4.50
2019-05-26T21:33:49.000Z,6.07
2019-05-26T21:36:16.559Z,3.27
2019-05-26T21:38:44.043Z,4.40
2019-05-26T21:41:12.398Z,3.50
2019-05-26T21:43:39.898Z,6.67
2019-05-26T21:46:07.387Z,7.60
2019-05-26T21:48:34.969Z,4.83
2019-05-26T21:51:02.615Z,4.97
2019-05-26T21:53:30.102Z,5.57
2019-05-26T21:55:57.630Z,5.13
2019-05-26T21:58:25.102Z,4.33
2019-05-26T22:00:52.619Z,6.20
2019-05-26T22:03:20.937Z,6.03
2019-05-26T22:05:48.508Z,5.53
2019-05-26T22:08:16.225Z,9.53
2019-05-26T22:10:43.905Z,5.80
2019-05-26T22:13:12.176Z,7.77
2019-05-26T22:15:39.659Z,5.57
2019-05-26T22:18:08.008Z,5.67
2019-05-26T22:20:35.487Z,9.20
2019-05-26T22:23:03.909Z,7.77
2019-05-26T22:25:31.408Z,8.77
2019-05-26T22:27:59.000Z,7.23
2019-05-26T22:30:26.563Z,9.33
2019-05-26T22:32:54.232Z,9.30
2019-05-26T22:35:22.497Z,11.67
2019-05-26T22:37:50.065Z,9.80
2019-05-26T22:40:17.975Z,7.03
2019-05-26T22:42:45.503Z,8.23
2019-05-26T22:45:13.075Z,12.00
2019-05-26T22:47:41.353Z,12.73
2019-05-26T22:50:08.858Z,7.93
2019-05-26T22:52:36.355Z,5.40
2019-05-26T22:55:06.612Z,7.97
2019-05-26T22:57:34.165Z,9.10
2019-05-26T23:00:01.644Z,9.17
2019-05-26T23:02:29.896Z,7.37
2019-05-26T23:04:57.580Z,8.70
2019-05-26T23:07:25.139Z,7.33
2019-05-26T23:09:52.716Z,6.67
2019-05-26T23:12:20.198Z,7.27
2019-05-26T23:14:48.481Z,7.40
2019-05-26T23:17:15.957Z,7.10
2019-05-26T23:19:43.593Z,9.90
2019-05-26T23:22:12.058Z,11.10
2019-05-26T23:24:39.734Z,6.93
2019-05-26T23:27:07.415Z,7.30
2019-05-26T23:29:35.929Z,9.17
2019-05-26T23:32:04.480Z,8.27
2019-05-26T23:34:32.749Z,10.40
2019-05-26T23:37:01.886Z,8.33
2019-05-26T23:39:29.395Z,7.60
2019-05-26T23:41:56.988Z,7.47
2019-05-26T23:44:24.470Z,6.23
2019-05-26T23:46:51.962Z,6.37
2019-05-26T23:49:19.442Z,8.20
2019-05-26T23:51:47.035Z,7.07
2019-05-26T23:54:14.577Z,8.93
2019-05-26T23:56:42.074Z,5.23
2019-05-26T23:59:10.331Z,6.70
